createdAt,value
2022-11-13T00:01:14.656Z,15.00
2022-11-13T00:06:34.721Z,13.80
2022-11-13T00:11:54.541Z,14.32
2022-11-13T00:17:14.342Z,13.93
2022-11-13T00:22:34.704Z,11.02
2022-11-13T00:27:54.442Z,13.15
2022-11-13T00:33:18.927Z,13.02
2022-11-13T00:38:47.149Z,10.85
2022-11-13T00:44:07.081Z,11.18
2022-11-13T00:49:27.134Z,14.43
2022-11-13T00:54:46.905Z,11.60
2022-11-13T01:05:27.355Z,14.13
2022-11-13T01:10:53.461Z,12.18
2022-11-13T01:16:16.046Z,11.35
2022-11-13T01:21:36.272Z,11.75
2022-11-13T01:26:56.095Z,12.60
2022-11-13T01:32:15.948Z,12.40
2022-11-13T01:42:55.370Z,12.55
2022-11-13T01:53:35.565Z,13.68
2022-11-13T01:59:05.913Z,10.68
2022-11-13T02:09:52.954Z,12.07
2022-11-13T02:15:13.477Z,14.40
2022-11-13T02:20:52.179Z,13.70
2022-11-13T02:26:12.613Z,11.80
2022-11-13T02:31:32.403Z,13.05
2022-11-13T02:36:52.107Z,10.98
2022-11-13T02:47:32.013Z,8.25
2022-11-13T02:52:52.038Z,10.45
2022-11-13T02:58:12.266Z,8.23
2022-11-13T03:09:12.173Z,10.25
2022-11-13T03:14:32.153Z,7.63
2022-11-13T03:25:11.692Z,9.38
2022-11-13T03:30:31.516Z,11.07
2022-11-13T03:41:11.273Z,9.48
2022-11-13T03:46:31.400Z,10.25
2022-11-13T03:51:51.200Z,8.95
2022-11-13T04:02:30.876Z,7.55
2022-11-13T04:13:11.001Z,8.50
2022-11-13T04:18:31.499Z,5.45
2022-11-13T04:23:51.376Z,8.25
2022-11-13T04:29:11.618Z,9.40
2022-11-13T04:34:31.260Z,7.50
2022-11-13T04:45:11.037Z,6.30
2022-11-13T04:55:53.088Z,7.57
2022-11-13T05:01:13.204Z,6.55
2022-11-13T05:06:33.058Z,6.63
2022-11-13T05:17:13.140Z,8.50
2022-11-13T05:22:33.102Z,6.30
2022-11-13T05:27:52.789Z,7.45
2022-11-13T05:38:32.886Z,5.63
2022-11-13T05:43:59.022Z,5.82
2022-11-13T05:49:19.657Z,7.53
2022-11-13T05:54:39.941Z,6.18
2022-11-13T05:59:59.934Z,6.05
2022-11-13T06:05:20.085Z,6.38
2022-11-13T06:10:39.995Z,4.65
2022-11-13T06:21:22.958Z,6.75
2022-11-13T06:26:42.793Z,3.85
2022-11-13T06:37:22.410Z,4.70
2022-11-13T06:42:42.268Z,6.10
2022-11-13T06:48:01.971Z,5.45
2022-11-13T06:53:21.710Z,5.30
2022-11-13T06:58:42.294Z,4.63
2022-11-13T07:04:02.441Z,5.57
2022-11-13T07:09:22.572Z,5.55
2022-11-13T07:14:42.226Z,5.78
2022-11-13T07:20:02.358Z,5.00
2022-11-13T07:25:22.429Z,3.78
2022-11-13T07:36:01.985Z,5.97
2022-11-13T07:46:41.610Z,5.13
2022-11-13T07:52:01.350Z,5.38
2022-11-13T08:02:40.956Z,5.15
2022-11-13T08:08:00.864Z,5.70
2022-11-13T08:13:20.851Z,4.65
2022-11-13T08:18:40.682Z,4.90
2022-11-13T08:24:00.714Z,5.43
2022-11-13T08:34:40.229Z,5.22
2022-11-13T08:39:59.986Z,5.25
2022-11-13T08:50:39.716Z,5.97
2022-11-13T08:56:01.477Z,4.63
2022-11-13T09:01:21.355Z,6.10
2022-11-13T09:12:01.061Z,4.72
2022-11-13T09:17:20.864Z,5.28
2022-11-13T09:28:01.389Z,5.72
2022-11-13T09:33:21.273Z,5.93
2022-11-13T09:38:41.730Z,4.93
2022-11-13T09:44:05.457Z,6.68
2022-11-13T09:49:34.755Z,5.32
2022-11-13T09:54:54.497Z,5.78
2022-11-13T10:05:59.490Z,8.02
2022-11-13T10:11:19.544Z,5.10
2022-11-13T10:16:45.624Z,4.68
2022-11-13T10:22:32.158Z,6.50
2022-11-13T10:27:56.895Z,6.10
2022-11-13T10:33:19.672Z,7.63
2022-11-13T10:39:05.688Z,6.03
2022-11-13T10:44:29.892Z,6.18
2022-11-13T10:49:49.932Z,6.40
2022-11-13T10:55:34.198Z,6.63
2022-11-13T11:00:54.009Z,7.53
2022-11-13T11:06:13.878Z,7.32
2022-11-13T11:11:34.295Z,6.75
2022-11-13T11:16:55.959Z,7.53
2022-11-13T11:22:19.852Z,7.30
2022-11-13T11:28:00.492Z,8.80
2022-11-13T11:33:27.834Z,7.85
2022-11-13T11:39:00.338Z,7.47
2022-11-13T11:45:17.714Z,6.50
2022-11-13T11:50:48.752Z,6.60
2022-11-13T11:56:08.910Z,7.18
2022-11-13T12:01:46.182Z,8.15
2022-11-13T12:07:09.188Z,7.47
2022-11-13T12:13:19.374Z,6.47
2022-11-13T12:18:50.319Z,7.10
2022-11-13T12:24:44.357Z,10.13
2022-11-13T12:30:18.613Z,6.05
2022-11-13T12:35:40.060Z,8.48
2022-11-13T12:41:38.566Z,9.55
2022-11-13T12:47:01.465Z,10.50
2022-11-13T12:52:23.180Z,9.45
2022-11-13T12:57:47.686Z,7.47
2022-11-13T13:03:41.108Z,9.32
2022-11-13T13:09:14.364Z,8.43
2022-11-13T13:14:59.164Z,7.10
2022-11-13T13:20:19.035Z,7.63
2022-11-13T13:25:39.726Z,7.45
2022-11-13T13:31:14.911Z,7.65
2022-11-13T13:36:56.124Z,9.60
2022-11-13T13:43:09.342Z,8.13
2022-11-13T13:48:31.247Z,33.13
2022-11-13T13:53:52.570Z,8.75
2022-11-13T13:59:19.686Z,8.20
2022-11-13T14:04:47.145Z,8.15
2022-11-13T14:10:17.536Z,8.68
2022-11-13T14:15:37.608Z,8.18
2022-11-13T14:20:59.896Z,8.48
2022-11-13T14:26:20.876Z,8.25
2022-11-13T14:31:41.178Z,10.13
2022-11-13T14:37:27.333Z,12.23
2022-11-13T14:42:53.152Z,17.85
2022-11-13T14:48:28.435Z,21.67
2022-11-13T14:53:59.354Z,30.75
2022-11-13T14:59:27.603Z,33.85
2022-11-13T15:04:47.636Z,33.15
2022-11-13T15:10:13.494Z,29.80
2022-11-13T15:15:33.426Z,26.35
2022-11-13T15:20:53.807Z,20.58
2022-11-13T15:26:14.017Z,11.95
2022-11-13T15:37:14.419Z,13.40
2022-11-13T15:42:35.733Z,14.45
2022-11-13T15:47:55.535Z,20.70
2022-11-13T15:58:35.149Z,17.13
2022-11-13T16:09:15.488Z,11.63
2022-11-13T16:14:35.628Z,13.25
2022-11-13T16:19:55.941Z,9.63
2022-11-13T16:25:18.937Z,12.07
2022-11-13T16:30:38.888Z,12.50
2022-11-13T16:35:58.748Z,15.63
2022-11-13T16:41:18.561Z,11.48
2022-11-13T16:52:00.098Z,26.02
2022-11-13T17:02:39.878Z,9.40
2022-11-13T17:07:59.967Z,11.30
2022-11-13T17:18:39.823Z,9.75
2022-11-13T17:29:21.012Z,9.75
2022-11-13T17:34:40.683Z,7.25
2022-11-13T17:40:00.572Z,8.80
2022-11-13T17:45:20.264Z,9.13
2022-11-13T17:50:40.070Z,6.53
2022-11-13T17:56:02.053Z,6.22
2022-11-13T18:01:22.587Z,6.40
2022-11-13T18:06:42.523Z,8.82
2022-11-13T18:12:02.263Z,7.93
2022-11-13T18:22:42.510Z,8.15
2022-11-13T18:28:02.609Z,8.40
2022-11-13T18:33:22.839Z,8.38
2022-11-13T18:44:02.965Z,9.20
2022-11-13T18:49:22.873Z,6.57
2022-11-13T18:54:43.063Z,8.38
2022-11-13T19:00:03.980Z,8.05
2022-11-13T19:05:24.174Z,11.13
2022-11-13T19:10:44.125Z,13.40
2022-11-13T19:16:05.469Z,10.48
2022-11-13T19:21:28.529Z,9.73
2022-11-13T19:26:48.767Z,14.20
2022-11-13T19:32:08.612Z,13.05
2022-11-13T19:42:48.182Z,13.50
2022-11-13T19:48:14.877Z,14.25
2022-11-13T19:53:38.729Z,9.63
2022-11-13T19:58:58.881Z,12.35
2022-11-13T20:09:38.725Z,15.00
2022-11-13T20:20:18.351Z,27.52
2022-11-13T20:25:38.119Z,29.52
2022-11-13T20:31:14.407Z,34.65
2022-11-13T20:36:34.563Z,35.08
2022-11-13T20:41:54.265Z,36.38
2022-11-13T20:52:33.762Z,38.97
2022-11-13T21:03:13.390Z,32.05
2022-11-13T21:13:53.832Z,14.55
2022-11-13T21:19:13.966Z,17.30
2022-11-13T21:29:53.776Z,23.00
2022-11-13T21:35:14.648Z,25.83
2022-11-13T21:40:36.526Z,27.17
2022-11-13T21:46:04.165Z,31.70
2022-11-13T21:51:24.456Z,35.03
2022-11-13T21:56:44.667Z,27.15
2022-11-13T22:02:04.546Z,35.72
2022-11-13T22:07:24.354Z,44.35
2022-11-13T22:12:44.684Z,47.42
2022-11-13T22:18:04.471Z,39.33
2022-11-13T22:28:45.647Z,56.33
2022-11-13T22:34:05.684Z,46.40
2022-11-13T22:39:25.757Z,40.42
2022-11-13T22:44:55.836Z,31.73
2022-11-13T22:50:16.129Z,33.72
2022-11-13T22:55:36.106Z,36.42
2022-11-13T23:00:56.121Z,34.00
2022-11-13T23:06:20.159Z,32.90
2022-11-13T23:11:41.427Z,40.17
2022-11-13T23:17:01.452Z,41.85
2022-11-13T23:22:21.203Z,46.08
2022-11-13T23:27:40.919Z,52.00
2022-11-13T23:33:00.815Z,60.85
2022-11-13T23:38:20.922Z,63.60
2022-11-13T23:44:07.824Z,55.78
2022-11-13T23:49:20.932Z,57.40
2022-11-13T23:54:40.768Z,63.60
